Observation data for Clarendon on 02/14/2020      Previous  Date  Next       Current Mesonet Observations  Soil Data  Daily Summary Page  Observations in Plain Language
KCES 140600Z 09009KT M05/M11 A3032 RMK A01 T10541111  RH  064%=      5-min Rain = 0
KCES 140605Z 10009KT M06/M11 A3032 RMK A01 T10551113  RH  063%=      5-min Rain = 0
KCES 140610Z 10008KT M06/M11 A3032 RMK A01 T10551111  RH  065%=      5-min Rain = 0
KCES 140615Z 10008KT M06/M11 A3032 RMK A01 T10561112  RH  064%=      5-min Rain = 0
KCES 140620Z 10007KT M06/M11 A3032 RMK A01 T10561110  RH  065%=      5-min Rain = 0
KCES 140625Z 10006KT M06/M11 A3032 RMK A01 T10571108  RH  067%=      5-min Rain = 0
KCES 140630Z 10006KT M06/M11 A3032 RMK A01 T10581108  RH  067%=      5-min Rain = 0
KCES 140635Z 11005KT M06/M11 A3032 RMK A01 T10581106  RH  069%=      5-min Rain = 0
KCES 140640Z 11005KT M06/M11 A3032 RMK A01 T10591105  RH  069%=      5-min Rain = 0
KCES 140645Z 12005KT M06/M10 A3032 RMK A01 T10611104  RH  071%=      5-min Rain = 0
KCES 140650Z 11005KT M06/M10 A3032 RMK A01 T10621102  RH  073%=      5-min Rain = 0
KCES 140655Z 11005KT M06/M10 A3033 RMK A01 T10621102  RH  073%=      5-min Rain = 0
KCES 140700Z 11004KT M06/M10 A3033 RMK A01 T10621101  RH  073%=      5-min Rain = 0
KCES 140705Z 12004KT M06/M10 A3033 RMK A01 T10621101  RH  074%=      5-min Rain = 0
KCES 140710Z 11004KT M06/M10 A3033 RMK A01 T10641100  RH  075%=      5-min Rain = 0
KCES 140715Z 11003KT M06/M10 A3033 RMK A01 T10641100  RH  076%=      5-min Rain = 0
KCES 140720Z 11003KT M06/M10 A3034 RMK A01 T10641100  RH  076%=      5-min Rain = 0
KCES 140725Z 10004KT M07/M10 A3034 RMK A01 T10651101  RH  075%=      5-min Rain = 0
KCES 140730Z 10004KT M06/M10 A3033 RMK A01 T10641101  RH  075%=      5-min Rain = 0
KCES 140735Z 10004KT M06/M10 A3033 RMK A01 T10641102  RH  075%=      5-min Rain = 0
KCES 140740Z 10005KT M06/M10 A3033 RMK A01 T10641103  RH  074%=      5-min Rain = 0
KCES 140745Z 10005KT M06/M10 A3033 RMK A01 T10641104  RH  073%=      5-min Rain = 0
KCES 140750Z 10005KT M06/M11 A3033 RMK A01 T10641106  RH  072%=      5-min Rain = 0
KCES 140755Z 10004KT M07/M11 A3033 RMK A01 T10651105  RH  073%=      5-min Rain = 0
KCES 140800Z 09003KT M07/M10 A3033 RMK A01 T10651104  RH  074%=      5-min Rain = 0
KCES 140805Z 08003KT M07/M10 A3034 RMK A01 T10661103  RH  075%=      5-min Rain = 0
KCES 140810Z 09003KT M07/M10 A3034 RMK A01 T10671104  RH  075%=      5-min Rain = 0
KCES 140815Z 09003KT M07/M10 A3034 RMK A01 T10681104  RH  075%=      5-min Rain = 0
KCES 140820Z 08003KT M07/M10 A3034 RMK A01 T10681104  RH  075%=      5-min Rain = 0
KCES 140825Z 09002KT M07/M10 A3034 RMK A01 T10691104  RH  076%=      5-min Rain = 0
KCES 140830Z 09003KT M07/M11 A3034 RMK A01 T10691105  RH  075%=      5-min Rain = 0
KCES 140835Z 09003KT M07/M10 A3034 RMK A01 T10691104  RH  076%=      5-min Rain = 0
KCES 140840Z 10003KT M07/M11 A3034 RMK A01 T10691105  RH  076%=      5-min Rain = 0
KCES 140845Z 11003KT M07/M10 A3034 RMK A01 T10691104  RH  076%=      5-min Rain = 0
KCES 140850Z 11003KT M07/M10 A3034 RMK A01 T10701103  RH  077%=      5-min Rain = 0
KCES 140855Z 10002KT M07/M10 A3034 RMK A01 T10721103  RH  078%=      5-min Rain = 0
KCES 140900Z 10002KT M07/M10 A3034 RMK A01 T10721103  RH  079%=      5-min Rain = 0
KCES 140905Z 10002KT M07/M10 A3034 RMK A01 T10731102  RH  079%=      5-min Rain = 0
KCES 140910Z 10002KT M07/M10 A3034 RMK A01 T10741101  RH  080%=      5-min Rain = 0
KCES 140915Z 11002KT M07/M10 A3034 RMK A01 T10741101  RH  081%=      5-min Rain = 0
KCES 140920Z 11002KT M07/M10 A3034 RMK A01 T10741101  RH  081%=      5-min Rain = 0
KCES 140925Z 11002KT M07/M10 A3034 RMK A01 T10741101  RH  081%=      5-min Rain = 0
KCES 140930Z 09001KT M08/M10 A3034 RMK A01 T10751101  RH  081%=      5-min Rain = 0
KCES 140935Z 10001KT M08/M10 A3034 RMK A01 T10771103  RH  081%=      5-min Rain = 0
KCES 140940Z 09001KT M08/M11 A3034 RMK A01 T10791105  RH  081%=      5-min Rain = 0
KCES 140945Z 07001KT M08/M11 A3034 RMK A01 T10801105  RH  082%=      5-min Rain = 0
KCES 140950Z 07001KT M08/M10 A3034 RMK A01 T10801103  RH  083%=      5-min Rain = 0
KCES 140955Z 07002KT M08/M10 A3034 RMK A01 T10781100  RH  084%=      5-min Rain = 0
KCES 141000Z 09002KT M07/M10 A3033 RMK A01 T10741100  RH  081%=      5-min Rain = 0
KCES 141005Z 10002KT M07/M10 A3033 RMK A01 T10721102  RH  079%=      5-min Rain = 0
KCES 141010Z 10002KT M07/M10 A3033 RMK A01 T10711104  RH  077%=      5-min Rain = 0
KCES 141015Z 10003KT M07/M10 A3033 RMK A01 T10711103  RH  077%=      5-min Rain = 0
KCES 141020Z 10003KT M07/M10 A3033 RMK A01 T10711102  RH  078%=      5-min Rain = 0
KCES 141025Z 12002KT M07/M10 A3033 RMK A01 T10721101  RH  079%=      5-min Rain = 0
KCES 141030Z 13002KT M07/M10 A3033 RMK A01 T10741102  RH  080%=      5-min Rain = 0
KCES 141035Z 13002KT M08/M10 A3033 RMK A01 T10751102  RH  081%=      5-min Rain = 0
KCES 141040Z 13002KT M08/M10 A3033 RMK A01 T10761102  RH  081%=      5-min Rain = 0
KCES 141045Z 13003KT M08/M10 A3033 RMK A01 T10771103  RH  081%=      5-min Rain = 0
KCES 141050Z 13004KT M08/M10 A3033 RMK A01 T10781104  RH  081%=      5-min Rain = 0
KCES 141055Z 13004KT M08/M11 A3033 RMK A01 T10781105  RH  081%=      5-min Rain = 0
KCES 141100Z 13004KT M08/M11 A3032 RMK A01 T10791105  RH  081%=      5-min Rain = 0
KCES 141105Z 13004KT M08/M11 A3032 RMK A01 T10791107  RH  081%=      5-min Rain = 0
KCES 141110Z 13004KT M08/M11 A3032 RMK A01 T10801106  RH  081%=      5-min Rain = 0
KCES 141115Z 13004KT M08/M11 A3033 RMK A01 T10791105  RH  081%=      5-min Rain = 0
KCES 141120Z 12004KT M08/M10 A3032 RMK A01 T10781104  RH  081%=      5-min Rain = 0
KCES 141125Z 13003KT M08/M10 A3032 RMK A01 T10781104  RH  081%=      5-min Rain = 0
KCES 141130Z 13004KT M08/M10 A3032 RMK A01 T10771104  RH  081%=      5-min Rain = 0
KCES 141135Z 12003KT M08/M10 A3033 RMK A01 T10771103  RH  081%=      5-min Rain = 0
KCES 141140Z 12004KT M08/M11 A3033 RMK A01 T10771105  RH  080%=      5-min Rain = 0
KCES 141145Z 12004KT M08/M10 A3032 RMK A01 T10751104  RH  079%=      5-min Rain = 0
KCES 141150Z 13004KT M07/M11 A3033 RMK A01 T10741105  RH  078%=      5-min Rain = 0
KCES 141155Z 13004KT M07/M11 A3033 RMK A01 T10731105  RH  077%=      5-min Rain = 0
KCES 141200Z 13004KT M07/M11 A3033 RMK A01 T10731107  RH  077%=      5-min Rain = 0
KCES 141205Z 13004KT M07/M11 A3033 RMK A01 T10721105  RH  077%=      5-min Rain = 0
KCES 141210Z 14004KT M07/M11 A3033 RMK A01 T10711105  RH  077%=      5-min Rain = 0
KCES 141215Z 13005KT M07/M11 A3033 RMK A01 T10711107  RH  075%=      5-min Rain = 0
KCES 141220Z 14005KT M07/M11 A3033 RMK A01 T10701105  RH  076%=      5-min Rain = 0
KCES 141225Z 15005KT M07/M11 A3033 RMK A01 T10701106  RH  075%=      5-min Rain = 0
KCES 141230Z 15005KT M07/M11 A3033 RMK A01 T10701106  RH  075%=      5-min Rain = 0
KCES 141235Z 14005KT M07/M11 A3033 RMK A01 T10691107  RH  074%=      5-min Rain = 0
KCES 141240Z 15005KT M07/M11 A3033 RMK A01 T10691105  RH  075%=      5-min Rain = 0
KCES 141245Z 15005KT M07/M11 A3033 RMK A01 T10691106  RH  075%=      5-min Rain = 0
KCES 141250Z 15005KT M07/M11 A3033 RMK A01 T10691106  RH  075%=      5-min Rain = 0
KCES 141255Z 15005KT M07/M11 A3033 RMK A01 T10701105  RH  076%=      5-min Rain = 0
KCES 141300Z 15005KT M07/M11 A3033 RMK A01 T10701105  RH  076%=      5-min Rain = 0
KCES 141305Z 16006KT M07/M11 A3033 RMK A01 T10691107  RH  074%=      5-min Rain = 0
KCES 141310Z 16006KT M07/M11 A3032 RMK A01 T10691108  RH  074%=      5-min Rain = 0
KCES 141315Z 17006KT M07/M11 A3033 RMK A01 T10691106  RH  074%=      5-min Rain = 0
KCES 141320Z 16006KT M07/M11 A3033 RMK A01 T10691107  RH  074%=      5-min Rain = 0
KCES 141325Z 16005KT M07/M11 A3033 RMK A01 T10691106  RH  074%=      5-min Rain = 0
KCES 141330Z 17006KT M07/M11 A3033 RMK A01 T10691109  RH  073%=      5-min Rain = 0
KCES 141335Z 16005KT M07/M11 A3033 RMK A01 T10691107  RH  074%=      5-min Rain = 0
KCES 141340Z 16006KT M07/M11 A3034 RMK A01 T10691110  RH  072%=      5-min Rain = 0
KCES 141345Z 17005KT M07/M11 A3034 RMK A01 T10691108  RH  073%=      5-min Rain = 0
KCES 141350Z 16005KT M07/M11 A3034 RMK A01 T10681105  RH  075%=      5-min Rain = 0
KCES 141355Z 16006KT M07/M11 A3034 RMK A01 T10681106  RH  074%=      5-min Rain = 0
KCES 141400Z 16007KT M07/M11 A3034 RMK A01 T10671108  RH  072%=      5-min Rain = 0
KCES 141405Z 17006KT M07/M11 A3034 RMK A01 T10691109  RH  073%=      5-min Rain = 0
KCES 141410Z 16006KT M07/M11 A3034 RMK A01 T10681105  RH  074%=      5-min Rain = 0
KCES 141415Z 17006KT M07/M11 A3034 RMK A01 T10681106  RH  074%=      5-min Rain = 0
KCES 141420Z 17007KT M07/M11 A3034 RMK A01 T10681106  RH  074%=      5-min Rain = 0
KCES 141425Z 17007KT M07/M11 A3034 RMK A01 T10671107  RH  073%=      5-min Rain = 0
KCES 141430Z 17008KT M07/M11 A3034 RMK A01 T10661107  RH  073%=      5-min Rain = 0
KCES 141435Z 17008KT M07/M11 A3034 RMK A01 T10661108  RH  072%=      5-min Rain = 0
KCES 141440Z 17007KT M07/M11 A3034 RMK A01 T10661108  RH  072%=      5-min Rain = 0
KCES 141445Z 17008KT M07/M11 A3034 RMK A01 T10661108  RH  072%=      5-min Rain = 0
KCES 141450Z 18008KT M07/M11 A3034 RMK A01 T10651107  RH  072%=      5-min Rain = 0
KCES 141455Z 17008KT M07/M11 A3034 RMK A01 T10651107  RH  072%=      5-min Rain = 0
KCES 141500Z 17008KT M06/M11 A3034 RMK A01 T10631105  RH  072%=      5-min Rain = 0
KCES 141505Z 17009KT M06/M11 A3034 RMK A01 T10631105  RH  072%=      5-min Rain = 0
KCES 141510Z 17008KT M06/M11 A3034 RMK A01 T10621105  RH  072%=      5-min Rain = 0
KCES 141515Z 18009KT M06/M10 A3034 RMK A01 T10611104  RH  071%=      5-min Rain = 0
KCES 141520Z 18008KT M06/M11 A3035 RMK A01 T10621105  RH  071%=      5-min Rain = 0
KCES 141525Z 18008KT M06/M10 A3034 RMK A01 T10611104  RH  071%=      5-min Rain = 0
KCES 141530Z 17009KT M06/M10 A3035 RMK A01 T10601103  RH  071%=      5-min Rain = 0
KCES 141535Z 18009KT M06/M10 A3034 RMK A01 T10601103  RH  071%=      5-min Rain = 0
KCES 141540Z 19010KT M06/M10 A3034 RMK A01 T10591102  RH  072%=      5-min Rain = 0
KCES 141545Z 19011KT M06/M10 A3034 RMK A01 T10581101  RH  072%=      5-min Rain = 0
KCES 141550Z 19010KT M06/M10 A3034 RMK A01 T10581100  RH  072%=      5-min Rain = 0
KCES 141555Z 19011KT M06/M10 A3034 RMK A01 T10581101  RH  072%=      5-min Rain = 0
KCES 141600Z 18009KT M06/M10 A3034 RMK A01 T10561098  RH  072%=      5-min Rain = 0
KCES 141605Z 19011KT M06/M10 A3034 RMK A01 T10561099  RH  071%=      5-min Rain = 0
KCES 141610Z 18010KT M06/M10 A3034 RMK A01 T10561098  RH  072%=      5-min Rain = 0
KCES 141615Z 18011KT M06/M10 A3034 RMK A01 T10561098  RH  072%=      5-min Rain = 0
KCES 141620Z 18010KT M06/M10 A3034 RMK A01 T10551097  RH  072%=      5-min Rain = 0
KCES 141625Z 18010KT M05/M10 A3034 RMK A01 T10521096  RH  071%=      5-min Rain = 0
KCES 141630Z 17010KT M05/M10 A3034 RMK A01 T10531098  RH  071%=      5-min Rain = 0
KCES 141635Z 18010KT M05/M10 A3034 RMK A01 T10531096  RH  072%=      5-min Rain = 0
KCES 141640Z 17009KT M05/M09 A3033 RMK A01 T10501094  RH  071%=      5-min Rain = 0
KCES 141645Z 17011KT M05/M09 A3033 RMK A01 T10481092  RH  071%=      5-min Rain = 0
KCES 141650Z 18013KT M05/M09 A3033 RMK A01 T10461089  RH  072%=      5-min Rain = 0
KCES 141655Z 18011KT M04/M09 A3033 RMK A01 T10441088  RH  071%=      5-min Rain = 0
KCES 141700Z 18010KT M04/M09 A3033 RMK A01 T10431086  RH  072%=      5-min Rain = 0
KCES 141705Z 18012G17KT M04/M08 A3032 RMK A01 T10401083  RH  072%=      5-min Rain = 0
KCES 141710Z 18011KT M04/M08 A3032 RMK A01 T10381083  RH  071%=      5-min Rain = 0
KCES 141715Z 18010KT M04/M08 A3032 RMK A01 T10361082  RH  070%=      5-min Rain = 0
KCES 141720Z 18012KT M04/M08 A3031 RMK A01 T10351080  RH  071%=      5-min Rain = 0
KCES 141725Z 18013KT M04/M08 A3031 RMK A01 T10361080  RH  072%=      5-min Rain = 0
KCES 141730Z 18012KT M03/M08 A3031 RMK A01 T10331077  RH  072%=      5-min Rain = 0
KCES 141735Z 17012KT M03/M07 A303 RMK A01 T10301074  RH  072%=      5-min Rain = 0
KCES 141740Z 18012KT M03/M08 A303 RMK A01 T10321076  RH  071%=      5-min Rain = 0
KCES 141745Z 17013KT M03/M08 A303 RMK A01 T10321075  RH  072%=      5-min Rain = 0
KCES 141750Z 18012G17KT M03/M07 A303 RMK A01 T10321074  RH  073%=      5-min Rain = 0
KCES 141755Z 18013KT M03/M07 A303 RMK A01 T10301074  RH  072%=      5-min Rain = 0
KCES 141800Z 18012KT M03/M07 A303 RMK A01 T10271072  RH  071%=      5-min Rain = 0
KCES 141805Z 18012KT M03/M07 A3029 RMK A01 T10271072  RH  071%=      5-min Rain = 0
KCES 141810Z 18011KT M03/M07 A3029 RMK A01 T10271072  RH  071%=      5-min Rain = 0
KCES 141815Z 18013KT M03/M07 A3029 RMK A01 T10281074  RH  071%=      5-min Rain = 0
KCES 141820Z 18013G18KT M03/M07 A3029 RMK A01 T10291073  RH  072%=      5-min Rain = 0
KCES 141825Z 18011G17KT M03/M07 A3028 RMK A01 T10281071  RH  072%=      5-min Rain = 0
KCES 141830Z 18011KT M03/M07 A3028 RMK A01 T10261070  RH  072%=      5-min Rain = 0
KCES 141835Z 17012KT M03/M07 A3028 RMK A01 T10251070  RH  071%=      5-min Rain = 0
KCES 141840Z 18013KT M03/M07 A3027 RMK A01 T10251069  RH  072%=      5-min Rain = 0
KCES 141845Z 18011KT M02/M07 A3027 RMK A01 T10221067  RH  071%=      5-min Rain = 0
KCES 141850Z 18012KT M02/M06 A3026 RMK A01 T10191064  RH  071%=      5-min Rain = 0
KCES 141855Z 18012KT M02/M06 A3026 RMK A01 T10191064  RH  071%=      5-min Rain = 0
KCES 141900Z 17013KT M02/M06 A3026 RMK A01 T10181063  RH  071%=      5-min Rain = 0
KCES 141905Z 18012KT M02/M06 A3025 RMK A01 T10171062  RH  071%=      5-min Rain = 0
KCES 141910Z 18012KT M01/M06 A3025 RMK A01 T10141061  RH  071%=      5-min Rain = 0
KCES 141915Z 18013KT M02/M06 A3025 RMK A01 T10151061  RH  071%=      5-min Rain = 0
KCES 141920Z 17013KT M01/M06 A3024 RMK A01 T10141059  RH  071%=      5-min Rain = 0
KCES 141925Z 18013KT M01/M06 A3024 RMK A01 T10131059  RH  071%=      5-min Rain = 0
KCES 141930Z 18013KT M01/M06 A3023 RMK A01 T10101057  RH  071%=      5-min Rain = 0
KCES 141935Z 18012KT M01/M06 A3023 RMK A01 T10091055  RH  071%=      5-min Rain = 0
KCES 141940Z 18013KT M01/M06 A3023 RMK A01 T10071055  RH  070%=      5-min Rain = 0
KCES 141945Z 18013KT M01/M05 A3023 RMK A01 T10071054  RH  071%=      5-min Rain = 0
KCES 141950Z 18012KT M01/M05 A3023 RMK A01 T10071053  RH  071%=      5-min Rain = 0
KCES 141955Z 18013KT M00/M05 A3022 RMK A01 T10041051  RH  071%=      5-min Rain = 0
KCES 142000Z 18013G18KT M00/M05 A3022 RMK A01 T10011049  RH  070%=      5-min Rain = 0
KCES 142005Z 19013KT 00/M05 A3022 RMK A01 T00021048  RH  069%=      5-min Rain = 0
KCES 142010Z 19015G20KT 00/M05 A3021 RMK A01 T00041046  RH  069%=      5-min Rain = 0
KCES 142015Z 18014KT 00/M05 A3021 RMK A01 T00041046  RH  070%=      5-min Rain = 0
KCES 142020Z 19013KT 01/M04 A3021 RMK A01 T00071044  RH  069%=      5-min Rain = 0
KCES 142025Z 19014KT 01/M04 A302 RMK A01 T00101043  RH  068%=      5-min Rain = 0
KCES 142030Z 18014KT 01/M04 A302 RMK A01 T00101041  RH  069%=      5-min Rain = 0
KCES 142035Z 18015KT 01/M04 A302 RMK A01 T00091042  RH  069%=      5-min Rain = 0
KCES 142040Z 18016G21KT 01/M04 A302 RMK A01 T00101041  RH  069%=      5-min Rain = 0
KCES 142045Z 18016KT 01/M04 A302 RMK A01 T00101041  RH  069%=      5-min Rain = 0
KCES 142050Z 18013KT 01/M04 A3019 RMK A01 T00121039  RH  069%=      5-min Rain = 0
KCES 142055Z 19013KT 02/M04 A3019 RMK A01 T00161037  RH  068%=      5-min Rain = 0
KCES 142100Z 18015KT 02/M04 A3019 RMK A01 T00181037  RH  068%=      5-min Rain = 0
KCES 142105Z 18013G18KT 02/M03 A3019 RMK A01 T00191034  RH  068%=      5-min Rain = 0
KCES 142110Z 18014G19KT 02/M03 A3018 RMK A01 T00241032  RH  067%=      5-min Rain = 0
KCES 142115Z 18013KT 03/M03 A3018 RMK A01 T00271030  RH  066%=      5-min Rain = 0
KCES 142120Z 18013G18KT 03/M03 A3017 RMK A01 T00291027  RH  067%=      5-min Rain = 0
KCES 142125Z 18014G19KT 03/M03 A3017 RMK A01 T00301026  RH  067%=      5-min Rain = 0
KCES 142130Z 18016KT 03/M03 A3017 RMK A01 T00291026  RH  068%=      5-min Rain = 0
KCES 142135Z 18014G19KT 03/M02 A3016 RMK A01 T00321024  RH  067%=      5-min Rain = 0
KCES 142140Z 19014KT 04/M02 A3016 RMK A01 T00361022  RH  066%=      5-min Rain = 0
KCES 142145Z 18015G20KT 04/M02 A3015 RMK A01 T00411019  RH  065%=      5-min Rain = 0
KCES 142150Z 19016KT 04/M02 A3015 RMK A01 T00411017  RH  066%=      5-min Rain = 0
KCES 142155Z 19018KT 04/M02 A3015 RMK A01 T00401019  RH  066%=      5-min Rain = 0
KCES 142200Z 18015G20KT 04/M02 A3015 RMK A01 T00391018  RH  067%=      5-min Rain = 0
KCES 142205Z 18016G21KT 04/M02 A3015 RMK A01 T00351018  RH  069%=      5-min Rain = 0
KCES 142210Z 18014KT 04/M02 A3015 RMK A01 T00371016  RH  069%=      5-min Rain = 0
KCES 142215Z 18017G22KT 04/M02 A3014 RMK A01 T00411018  RH  066%=      5-min Rain = 0
KCES 142220Z 18015KT 03/M02 A3014 RMK A01 T00341019  RH  069%=      5-min Rain = 0
KCES 142225Z 18016G23KT 04/M02 A3014 RMK A01 T00361017  RH  069%=      5-min Rain = 0
KCES 142230Z 18015G21KT 04/M02 A3014 RMK A01 T00371016  RH  069%=      5-min Rain = 0
KCES 142235Z 18016G21KT 04/M02 A3014 RMK A01 T00371017  RH  068%=      5-min Rain = 0
KCES 142240Z 18015KT 04/M02 A3014 RMK A01 T00391016  RH  068%=      5-min Rain = 0
KCES 142245Z 18015G20KT 04/M02 A3014 RMK A01 T00351018  RH  069%=      5-min Rain = 0
KCES 142250Z 18017KT 03/M02 A3014 RMK A01 T00341018  RH  069%=      5-min Rain = 0
KCES 142255Z 18016KT 03/M02 A3014 RMK A01 T00331018  RH  069%=      5-min Rain = 0
KCES 142300Z 18016KT 03/M02 A3014 RMK A01 T00301019  RH  071%=      5-min Rain = 0
KCES 142305Z 18014G19KT 03/M02 A3014 RMK A01 T00311017  RH  071%=      5-min Rain = 0
KCES 142310Z 19015KT 03/M02 A3014 RMK A01 T00311018  RH  071%=      5-min Rain = 0
KCES 142315Z 18015KT 03/M02 A3014 RMK A01 T00291018  RH  072%=      5-min Rain = 0
KCES 142320Z 18016KT 03/M02 A3014 RMK A01 T00281019  RH  072%=      5-min Rain = 0
KCES 142325Z 19016KT 03/M02 A3014 RMK A01 T00271019  RH  073%=      5-min Rain = 0
KCES 142330Z 19015G20KT 03/M02 A3014 RMK A01 T00271019  RH  072%=      5-min Rain = 0
KCES 142335Z 19015G20KT 03/M02 A3014 RMK A01 T00251019  RH  073%=      5-min Rain = 0
KCES 142340Z 19014G19KT 02/M02 A3014 RMK A01 T00241019  RH  074%=      5-min Rain = 0
KCES 142345Z 19014KT 02/M02 A3013 RMK A01 T00231020  RH  074%=      5-min Rain = 0
KCES 142350Z 19013G18KT 02/M02 A3013 RMK A01 T00211020  RH  075%=      5-min Rain = 0
KCES 142355Z 19014KT 02/M02 A3013 RMK A01 T00211020  RH  075%=      5-min Rain = 0
KCES 150000Z 19014KT 02/M02 A3013 RMK A01 T00211020  RH  075%=      5-min Rain = 0
KCES 150005Z 19013G18KT 02/M02 A3013 RMK A01 T00191020  RH  076%=      5-min Rain = 0
KCES 150010Z 20012G17KT 02/M02 A3013 RMK A01 T00181021  RH  076%=      5-min Rain = 0
KCES 150015Z 19012KT 02/M02 A3013 RMK A01 T00151021  RH  077%=      5-min Rain = 0
KCES 150020Z 20011KT 01/M02 A3013 RMK A01 T00131021  RH  078%=      5-min Rain = 0
KCES 150025Z 20009KT 01/M02 A3013 RMK A01 T00111022  RH  079%=      5-min Rain = 0
KCES 150030Z 20009KT 01/M02 A3013 RMK A01 T00091022  RH  081%=      5-min Rain = 0
KCES 150035Z 20010KT 01/M02 A3013 RMK A01 T00091020  RH  081%=      5-min Rain = 0
KCES 150040Z 20009KT 01/M02 A3013 RMK A01 T00101020  RH  081%=      5-min Rain = 0
KCES 150045Z 20011KT 01/M02 A3013 RMK A01 T00091020  RH  082%=      5-min Rain = 0
KCES 150050Z 20010G15KT 01/M02 A3013 RMK A01 T00071021  RH  082%=      5-min Rain = 0
KCES 150055Z 20010KT 01/M02 A3013 RMK A01 T00061022  RH  083%=      5-min Rain = 0
KCES 150100Z 19012KT 01/M02 A3013 RMK A01 T00061021  RH  083%=      5-min Rain = 0
KCES 150105Z 20011KT 01/M02 A3013 RMK A01 T00051022  RH  083%=      5-min Rain = 0
KCES 150110Z 20011G17KT 00/M02 A3013 RMK A01 T00041022  RH  083%=      5-min Rain = 0
KCES 150115Z 20013KT 01/M02 A3013 RMK A01 T00051021  RH  083%=      5-min Rain = 0
KCES 150120Z 20015KT 01/M02 A3013 RMK A01 T00051021  RH  084%=      5-min Rain = 0
KCES 150125Z 20015KT 01/M02 A3013 RMK A01 T00051021  RH  084%=      5-min Rain = 0
KCES 150130Z 20015KT 00/M02 A3013 RMK A01 T00041020  RH  084%=      5-min Rain = 0
KCES 150135Z 20015KT 00/M02 A3012 RMK A01 T00041021  RH  084%=      5-min Rain = 0
KCES 150140Z 20016KT 00/M02 A3012 RMK A01 T00041020  RH  085%=      5-min Rain = 0
KCES 150145Z 20015G20KT 00/M02 A3012 RMK A01 T00041020  RH  085%=      5-min Rain = 0
KCES 150150Z 20016KT 00/M02 A3012 RMK A01 T00041020  RH  085%=      5-min Rain = 0
KCES 150155Z 20015KT 00/M02 A3012 RMK A01 T00031020  RH  085%=      5-min Rain = 0
KCES 150200Z 20015G20KT 00/M02 A3012 RMK A01 T00021020  RH  086%=      5-min Rain = 0
KCES 150205Z 20014KT 00/M02 A3012 RMK A01 T00011021  RH  086%=      5-min Rain = 0
KCES 150210Z 20014KT 00/02 A3012 RMK A01 T00000-21  RH  086%=      5-min Rain = 0
KCES 150215Z 20014KT 00/02 A3012 RMK A01 T00000-20  RH  087%=      5-min Rain = 0
KCES 150220Z 20015KT 00/02 A3012 RMK A01 T00000-20  RH  087%=      5-min Rain = 0
KCES 150225Z 20014KT 00/M02 A3012 RMK A01 T00011020  RH  087%=      5-min Rain = 0
KCES 150230Z 20015KT 00/02 A3012 RMK A01 T00000-20  RH  087%=      5-min Rain = 0
KCES 150235Z 21014KT 00/02 A3013 RMK A01 T00-00-20  RH  088%=      5-min Rain = 0
KCES 150240Z 21014KT 00/02 A3013 RMK A01 T00-00-19  RH  088%=      5-min Rain = 0
KCES 150245Z 21014KT M00/M02 A3012 RMK A01 T10011020  RH  088%=      5-min Rain = 0
KCES 150250Z 21015KT M00/M02 A3012 RMK A01 T10011019  RH  088%=      5-min Rain = 0
KCES 150255Z 21014KT M00/M02 A3012 RMK A01 T10011019  RH  088%=      5-min Rain = 0
KCES 150300Z 21015KT 00/02 A3011 RMK A01 T00000-18  RH  089%=      5-min Rain = 0
KCES 150305Z 21016G21KT 00/M02 A3011 RMK A01 T00011016  RH  089%=      5-min Rain = 0
KCES 150310Z 21016KT 00/M02 A3011 RMK A01 T00021016  RH  089%=      5-min Rain = 0
KCES 150315Z 21018KT 00/M02 A3011 RMK A01 T00021015  RH  089%=      5-min Rain = 0
KCES 150320Z 21017G22KT 00/M02 A3011 RMK A01 T00021015  RH  089%=      5-min Rain = 0
KCES 150325Z 22016KT 00/M01 A3011 RMK A01 T00021014  RH  089%=      5-min Rain = 0
KCES 150330Z 22017KT 00/M01 A301 RMK A01 T00021014  RH  090%=      5-min Rain = 0
KCES 150335Z 22018G24KT 00/M01 A301 RMK A01 T00041013  RH  090%=      5-min Rain = 0
KCES 150340Z 22018KT 00/M01 A301 RMK A01 T00041012  RH  090%=      5-min Rain = 0
KCES 150345Z 22018G23KT 00/M01 A301 RMK A01 T00041012  RH  090%=      5-min Rain = 0
KCES 150350Z 22017KT 00/M01 A301 RMK A01 T00041012  RH  090%=      5-min Rain = 0
KCES 150355Z 22017G22KT 01/M01 A301 RMK A01 T00051011  RH  090%=      5-min Rain = 0
KCES 150400Z 22017KT 01/M01 A301 RMK A01 T00061010  RH  090%=      5-min Rain = 0
KCES 150405Z 21017KT 01/M01 A301 RMK A01 T00061009  RH  090%=      5-min Rain = 0
KCES 150410Z 22016KT 01/M01 A301 RMK A01 T00061009  RH  090%=      5-min Rain = 0
KCES 150415Z 22017KT 01/M01 A301 RMK A01 T00061009  RH  091%=      5-min Rain = 0
KCES 150420Z 22015G20KT 01/M01 A301 RMK A01 T00071008  RH  091%=      5-min Rain = 0
KCES 150425Z 22017KT 01/M01 A301 RMK A01 T00071008  RH  091%=      5-min Rain = 0
KCES 150430Z 22016KT 01/M01 A301 RMK A01 T00081007  RH  091%=      5-min Rain = 0
KCES 150435Z 22015KT 01/M01 A301 RMK A01 T00081007  RH  091%=      5-min Rain = 0
KCES 150440Z 22014KT 01/M01 A301 RMK A01 T00071007  RH  091%=      5-min Rain = 0
KCES 150445Z 22014KT 01/M01 A301 RMK A01 T00071007  RH  091%=      5-min Rain = 0
KCES 150450Z 22014KT 01/M01 A301 RMK A01 T00071007  RH  091%=      5-min Rain = 0
KCES 150455Z 22014KT 01/M01 A301 RMK A01 T00071007  RH  092%=      5-min Rain = 0
KCES 150500Z 21014KT 01/M01 A3009 RMK A01 T00071006  RH  092%=      5-min Rain = 0
KCES 150505Z 21014KT 01/M01 A3009 RMK A01 T00081005  RH  092%=      5-min Rain = 0
KCES 150510Z 22012KT 01/M00 A3009 RMK A01 T00101004  RH  092%=      5-min Rain = 0
KCES 150515Z 22011KT 01/M00 A301 RMK A01 T00101004  RH  091%=      5-min Rain = 0
KCES 150520Z 22010KT 01/M01 A301 RMK A01 T00091005  RH  091%=      5-min Rain = 0
KCES 150525Z 23009KT 01/M01 A301 RMK A01 T00071006  RH  092%=      5-min Rain = 0
KCES 150530Z 22009KT 01/M01 A301 RMK A01 T00061007  RH  092%=      5-min Rain = 0
KCES 150535Z 22010KT 01/M01 A3009 RMK A01 T00051008  RH  092%=      5-min Rain = 0
KCES 150540Z 21009KT 00/M01 A3009 RMK A01 T00041008  RH  092%=      5-min Rain = 0
KCES 150545Z 21009KT 00/M01 A3009 RMK A01 T00041008  RH  093%=      5-min Rain = 0
KCES 150550Z 22008KT 00/M01 A3009 RMK A01 T00031008  RH  093%=      5-min Rain = 0
KCES 150555Z 22008KT 00/M01 A3009 RMK A01 T00031009  RH  093%=      5-min Rain = 0

Page generated in 0.0391 seconds.